Time;durP1;ratioP1;P1;durP2;ratioP2;P2;SDS_P1;SDS_P2;PMS_P1;PMS_P2;Temp;Humidity;BMP_temperature;BMP_pressure;BME280_temperature;BME280_humidity;BME280_pressure;Samples;Min_cycle;Max_cycle;Signal;HPM_P1;HPM_P2
2021/01/03 00:00:41;;;;;;;17.27;13.30;;;;;;;2.41;77.95;101337.11;1694233;83;21725;-90
2021/01/03 00:03:19;;;;;;;21.97;14.67;;;;;;;2.52;77.52;101333.23;1703140;83;21201;-91
2021/01/03 00:05:57;;;;;;;24.83;16.73;;;;;;;2.46;77.68;101334.14;1710245;79;21147;-89
2021/01/03 00:09:09;;;;;;;19.90;13.57;;;;;;;2.38;78.03;101339.95;1711904;79;21103;-94
2021/01/03 00:12:19;;;;;;;22.30;16.60;;;;;;;2.42;77.98;101326.11;1717755;78;21199;-95
2021/01/03 00:15:35;;;;;;;22.07;16.37;;;;;;;2.48;77.71;101332.23;1657234;82;21190;-93
2021/01/03 00:18:34;;;;;;;27.53;18.60;;;;;;;2.39;77.85;101333.73;1737198;81;21183;-94
2021/01/03 00:21:30;;;;;;;21.87;15.90;;;;;;;2.31;78.07;101330.33;1727061;81;21498;-92
2021/01/03 00:24:03;;;;;;;23.30;17.20;;;;;;;2.38;77.97;101342.59;1691456;82;21172;-91
2021/01/03 00:26:31;;;;;;;19.50;15.63;;;;;;;2.51;77.55;101342.55;1726082;82;21337;-89
2021/01/03 00:28:58;;;;;;;24.23;17.90;;;;;;;2.46;77.68;101345.50;1732039;81;21145;-89
2021/01/03 00:31:26;;;;;;;18.60;15.67;;;;;;;2.34;78.09;101344.59;1735384;81;21644;-91
2021/01/03 00:33:54;;;;;;;22.90;17.83;;;;;;;2.34;78.12;101351.66;1698915;82;21965;-89
2021/01/03 00:36:21;;;;;;;20.50;15.17;;;;;;;2.42;77.90;101347.16;1696665;81;21124;-91
2021/01/03 00:38:50;;;;;;;21.03;16.17;;;;;;;2.42;77.78;101349.79;1648450;85;21206;-91
2021/01/03 00:41:18;;;;;;;23.77;18.93;;;;;;;2.36;77.89;101347.12;1666760;84;21234;-89
2021/01/03 00:43:47;;;;;;;22.97;17.23;;;;;;;2.32;78.01;101343.03;1637461;85;21353;-90
2021/01/03 00:46:16;;;;;;;23.63;18.47;;;;;;;2.29;78.14;101337.98;1662003;84;21919;-90
2021/01/03 00:48:43;;;;;;;26.13;17.03;;;;;;;2.37;77.70;101337.43;1665707;84;21194;-90
2021/01/03 00:51:11;;;;;;;25.43;19.10;;;;;;;2.34;77.74;101338.50;1644007;85;21728;-90
2021/01/03 00:53:38;;;;;;;24.00;19.03;;;;;;;2.25;77.94;101330.78;1632842;85;21376;-88
2021/01/03 00:56:09;;;;;;;27.17;20.33;;;;;;;2.19;78.06;101330.40;1619389;86;21190;-90
2021/01/03 00:59:43;;;;;;;23.30;19.47;;;;;;;2.21;78.03;101333.27;1631097;82;21336;-93
2021/01/03 01:02:53;;;;;;;24.97;17.93;;;;;;;2.38;77.65;101332.06;1603609;84;21180;-89
2021/01/03 01:36:10;;;;;;;;;;;;;;;;;;;;;
2021/01/03 01:42:44;;;;;;;31.97;22.67;;;;;;;2.15;75.81;101324.52;1639946;85;21298;-89
2021/01/03 01:45:45;;;;;;;30.97;22.33;;;;;;;1.98;76.39;101316.95;1803661;78;23156;-88
2021/01/03 01:48:22;;;;;;;33.10;20.90;;;;;;;1.84;76.60;101323.20;1777222;79;21155;-89
2021/01/03 01:51:00;;;;;;;23.73;18.63;;;;;;;1.87;76.66;101326.45;1780256;80;21254;-90
2021/01/03 01:53:53;;;;;;;24.98;17.40;;;;;;;1.98;76.43;101330.11;1762308;77;21623;-90
2021/01/03 01:57:02;;;;;;;26.37;18.30;;;;;;;1.86;76.79;101321.30;1766762;80;21278;-88
2021/01/03 01:59:58;;;;;;;27.33;20.43;;;;;;;1.67;77.55;101319.95;1781288;80;21149;-92
2021/01/03 02:02:59;;;;;;;26.00;19.90;;;;;;;1.56;77.71;101318.53;1769296;79;21357;-91
2021/01/03 02:05:40;;;;;;;24.63;19.27;;;;;;;1.60;77.70;101330.55;1728518;80;21218;-88
2021/01/03 02:08:37;;;;;;;25.00;18.40;;;;;;;1.67;77.48;101332.26;1683702;83;21224;-90
2021/01/03 02:11:08;;;;;;;29.77;20.70;;;;;;;1.51;78.18;101338.58;1698493;82;21314;-91
2021/01/03 02:13:42;;;;;;;25.67;19.97;;;;;;;1.30;78.92;101344.82;1694107;83;21200;-90
2021/01/03 02:16:23;;;;;;;22.50;17.97;;;;;;;1.26;79.18;101339.41;1678898;84;21263;-92
2021/01/03 02:19:14;;;;;;;30.70;21.57;;;;;;;1.25;79.30;101345.59;1665290;82;21243;-92
2021/01/03 02:21:54;;;;;;;28.47;18.13;;;;;;;1.11;79.65;101343.91;1689090;83;21187;-91
2021/01/03 02:24:45;;;;;;;21.70;17.43;;;;;;;1.09;79.99;101343.16;1700790;83;21341;-91
2021/01/03 02:27:44;;;;;;;26.90;19.47;;;;;;;1.21;79.69;101342.81;1699982;83;21185;-93
2021/01/03 02:30:12;;;;;;;26.10;17.93;;;;;;;1.15;80.16;101342.75;1693762;83;21792;-94
2021/01/03 02:32:43;;;;;;;22.17;15.73;;;;;;;1.08;80.59;101344.58;1707842;82;21338;-94
2021/01/03 02:35:14;;;;;;;22.13;17.33;;;;;;;1.18;80.53;101340.38;1696203;82;21219;-93
2021/01/03 02:37:48;;;;;;;17.97;14.10;;;;;;;1.35;80.27;101345.33;1733752;82;21176;-91
2021/01/03 02:40:20;;;;;;;21.10;16.10;;;;;;;1.40;80.35;101338.47;1713310;82;21673;-89
2021/01/03 02:42:48;;;;;;;20.47;14.50;;;;;;;1.43;80.68;101333.46;1714185;82;21215;-91
2021/01/03 02:45:22;;;;;;;21.30;16.13;;;;;;;1.51;80.78;101323.29;1691331;84;22353;-92
2021/01/03 02:47:50;;;;;;;22.87;16.60;;;;;;;1.66;80.59;101322.70;1677296;84;21190;-91
2021/01/03 02:53:01;;;;;;;20.97;16.90;;;;;;;1.74;80.48;101327.78;1802905;78;23614;-87
2021/01/03 02:55:30;;;;;;;16.97;13.93;;;;;;;1.82;80.14;101331.67;1791743;79;21152;-89
2021/01/03 02:57:58;;;;;;;20.30;15.77;;;;;;;1.89;79.84;101333.76;1784316;80;21234;-91
2021/01/03 03:00:31;;;;;;;18.83;14.70;;;;;;;1.88;79.81;101332.06;1778027;79;21170;-89
2021/01/03 03:03:01;;;;;;;24.90;16.50;;;;;;;1.80;79.96;101334.40;1771731;80;21169;-91
2021/01/03 03:05:31;;;;;;;22.23;15.70;;;;;;;1.84;79.89;101339.80;1716558;81;21234;-90
2021/01/03 03:08:00;;;;;;;23.47;13.83;;;;;;;1.89;79.64;101334.24;1711797;83;21159;-89
2021/01/03 03:10:30;;;;;;;22.03;15.53;;;;;;;1.78;79.69;101328.89;1704942;83;21249;-93
2021/01/03 03:13:30;;;;;;;24.10;16.13;;;;;;;1.65;79.95;101333.67;1682872;85;21189;-89
2021/01/03 03:16:12;;;;;;;22.17;16.37;;;;;;;1.71;79.71;101329.78;1710927;82;21231;-87
2021/01/03 03:19:20;;;;;;;24.63;17.47;;;;;;;1.68;79.69;101342.67;1698189;82;21136;-85
2021/01/03 03:22:29;;;;;;;22.60;15.87;;;;;;;1.52;80.05;101339.41;1672366;82;21119;-93
2021/01/03 03:25:33;;;;;;;23.27;17.50;;;;;;;1.53;80.02;101348.50;1643122;86;21184;-94
2021/01/03 03:29:09;;;;;;;24.87;18.50;;;;;;;1.54;79.91;101346.70;1627497;82;21199;-90
2021/01/03 03:32:55;;;;;;;20.20;15.17;;;;;;;1.45;80.18;101352.14;1643590;85;21139;-94
2021/01/03 03:36:08;;;;;;;19.53;14.07;;;;;;;1.40;80.37;101348.14;1644289;85;21744;-90
2021/01/03 03:38:35;;;;;;;24.27;18.23;;;;;;;1.44;80.22;101349.13;1651244;83;21163;-89
2021/01/03 03:41:04;;;;;;;21.53;15.27;;;;;;;1.40;80.33;101344.20;1653188;85;21304;-88
2021/01/03 03:43:33;;;;;;;23.63;17.33;;;;;;;1.22;81.20;101351.52;1652812;83;21698;-90
2021/01/03 03:46:00;;;;;;;20.60;14.83;;;;;;;1.23;81.09;101342.23;1620035;84;21550;-88
2021/01/03 03:48:27;;;;;;;22.07;15.57;;;;;;;1.29;81.14;101347.55;1631055;86;21207;-91
2021/01/03 03:50:55;;;;;;;20.77;14.93;;;;;;;1.26;81.14;101342.48;1649992;86;21402;-89
2021/01/03 03:53:24;;;;;;;17.33;12.13;;;;;;;1.14;81.74;101348.09;1643629;85;21356;-92
2021/01/03 03:56:03;;;;;;;21.47;16.20;;;;;;;1.26;81.59;101353.86;1846316;76;23570;-91
2021/01/03 03:58:30;;;;;;;26.07;17.20;;;;;;;1.15;81.64;101353.25;1814770;77;21209;-90
2021/01/03 04:01:03;;;;;;;21.73;16.37;;;;;;;1.08;82.06;101357.70;1817353;78;21153;-88
2021/01/03 04:03:32;;;;;;;24.67;17.40;;;;;;;1.12;82.09;101359.17;1769741;79;21608;-89
2021/01/03 04:06:01;;;;;;;21.63;16.03;;;;;;;1.19;81.97;101353.89;1726839;81;21555;-91
2021/01/03 04:08:28;;;;;;;22.17;15.43;;;;;;;1.22;81.81;101352.83;1710689;82;21629;-90
2021/01/03 04:10:55;;;;;;;27.47;18.60;;;;;;;1.16;81.91;101365.42;1679791;84;21318;-89
2021/01/03 04:13:23;;;;;;;21.97;16.00;;;;;;;1.12;82.09;101364.43;1717402;82;21217;-90
2021/01/03 04:15:53;;;;;;;22.17;16.33;;;;;;;1.22;81.96;101360.72;1713707;82;21166;-90
2021/01/03 04:18:20;;;;;;;20.00;14.93;;;;;;;1.29;81.67;101368.56;1692244;80;21174;-91
2021/01/03 04:20:48;;;;;;;21.20;15.77;;;;;;;1.32;81.63;101374.93;1714058;82;21193;-91
2021/01/03 04:23:16;;;;;;;24.10;15.77;;;;;;;1.25;81.75;101367.09;1689365;84;21184;-91
2021/01/03 04:25:45;;;;;;;16.93;13.83;;;;;;;1.23;81.81;101367.66;1692872;83;21210;-89
2021/01/03 04:28:12;;;;;;;18.37;13.97;;;;;;;1.33;81.48;101362.98;1676813;83;21122;-90
2021/01/03 04:30:45;;;;;;;18.93;13.50;;;;;;;1.41;81.14;101369.03;1707415;79;21177;-92
2021/01/03 04:33:16;;;;;;;18.67;12.40;;;;;;;1.29;81.00;101365.93;1709040;81;21790;-90
2021/01/03 04:35:58;;;;;;;16.47;12.57;;;;;;;1.16;81.34;101375.09;1665093;83;21114;-93
2021/01/03 04:38:27;;;;;;;18.40;12.97;;;;;;;1.20;81.29;101372.63;1683683;84;21190;-92
2021/01/03 04:40:55;;;;;;;20.63;13.13;;;;;;;1.19;81.36;101373.59;1676991;84;21166;-91
2021/01/03 04:43:23;;;;;;;19.80;14.33;;;;;;;1.14;81.61;101369.94;1686169;84;21217;-92
2021/01/03 04:46:01;;;;;;;17.87;13.40;;;;;;;1.10;81.81;101368.95;1681902;83;21227;-91
2021/01/03 04:48:31;;;;;;;17.37;12.43;;;;;;;1.19;81.67;101367.47;1678480;84;21189;-93
2021/01/03 04:51:24;;;;;;;21.17;15.47;;;;;;;1.24;81.57;101372.79;1672406;83;21155;-93
2021/01/03 04:54:09;;;;;;;21.10;14.13;;;;;;;1.16;81.88;101372.47;1658406;84;21179;-94
2021/01/03 04:56:46;;;;;;;21.00;13.90;;;;;;;1.11;82.18;101364.91;1675216;84;21303;-93
2021/01/03 04:59:43;;;;;;;15.40;11.83;;;;;;;1.21;81.89;101382.20;1697172;83;21189;-92
2021/01/03 05:03:09;;;;;;;17.90;12.93;;;;;;;1.26;81.85;101380.13;1673870;83;21220;-93
2021/01/03 05:05:53;;;;;;;16.47;12.30;;;;;;;1.18;82.08;101377.62;1668391;84;21119;-93
2021/01/03 05:09:00;;;;;;;19.43;13.83;;;;;;;1.12;82.22;101375.77;1662976;85;21186;-92
2021/01/03 05:12:18;;;;;;;18.53;11.10;;;;;;;1.12;82.27;101374.94;1675746;83;21259;-94
2021/01/03 05:15:14;;;;;;;18.40;11.67;;;;;;;1.09;82.34;101384.31;1683966;83;21135;-95
2021/01/03 05:17:48;;;;;;;16.20;10.07;;;;;;;1.01;82.75;101386.62;1688662;84;21190;-94
2021/01/03 05:20:20;;;;;;;16.20;11.50;;;;;;;1.10;82.45;101384.70;1665067;85;21629;-94
2021/01/03 05:23:16;;;;;;;15.10;10.63;;;;;;;1.11;82.41;101392.93;1689282;84;21199;-94
2021/01/03 05:25:52;;;;;;;16.17;12.30;;;;;;;1.03;82.72;101383.41;1667042;84;21764;-93
2021/01/03 05:28:51;;;;;;;14.13;9.43;;;;;;;1.06;82.69;101385.85;1684592;84;21199;-92
2021/01/03 05:31:26;;;;;;;14.10;10.20;;;;;;;1.15;82.40;101386.56;1654925;82;21159;-95
2021/01/03 05:34:17;;;;;;;13.10;9.03;;;;;;;1.12;82.37;101392.00;1661438;83;21325;-94
2021/01/03 05:36:54;;;;;;;14.60;10.40;;;;;;;1.09;82.46;101388.25;1611560;86;21257;-94
2021/01/03 05:39:32;;;;;;;15.07;10.73;;;;;;;1.21;82.18;101392.71;1672607;85;21179;-94
2021/01/03 05:46:42;;;;;;;17.40;11.83;;;;;;;1.11;82.56;101397.73;1686576;84;21147;-94
2021/01/03 05:49:57;;;;;;;17.33;11.43;;;;;;;1.19;82.50;101395.91;1673795;84;21164;-96
2021/01/03 05:53:19;;;;;;;20.40;11.53;;;;;;;1.21;82.38;101396.65;1677565;83;21151;-93
2021/01/03 05:55:56;;;;;;;14.73;10.07;;;;;;;1.14;82.80;101396.68;1656346;83;21228;-92
2021/01/03 05:58:40;;;;;;;16.10;10.97;;;;;;;1.21;82.53;101394.50;1641910;85;21219;-92
2021/01/03 06:01:20;;;;;;;17.10;10.90;;;;;;;1.22;82.40;101398.31;1634853;86;21200;-90
2021/01/03 06:04:13;;;;;;;16.67;11.70;;;;;;;1.12;82.78;101407.76;1626335;85;21231;-91
2021/01/03 06:07:22;;;;;;;15.20;10.77;;;;;;;1.10;82.86;101400.45;1637830;85;21197;-91
2021/01/03 06:09:53;;;;;;;13.50;10.17;;;;;;;1.18;82.62;101396.01;1635291;85;21381;-92
2021/01/03 06:12:29;;;;;;;15.63;10.57;;;;;;;1.20;82.59;101394.95;1648181;85;21390;-90
2021/01/03 06:15:02;;;;;;;13.40;9.67;;;;;;;1.10;82.74;101407.02;1640175;85;21669;-93
2021/01/03 06:17:39;;;;;;;13.53;9.87;;;;;;;1.14;82.87;101405.39;1650951;87;21168;-93
2021/01/03 06:20:43;;;;;;;13.77;10.17;;;;;;;1.24;82.49;101416.13;1624495;84;21174;-92
2021/01/03 06:24:21;;;;;;;17.47;10.40;;;;;;;1.24;82.42;101401.68;1638225;82;21532;-85
2021/01/03 06:27:05;;;;;;;13.53;8.80;;;;;;;1.18;82.68;101413.91;1650407;82;21203;-92
2021/01/03 06:29:50;;;;;;;10.63;7.60;;;;;;;1.27;82.31;101408.53;1654350;82;21179;-86
2021/01/03 06:33:30;;;;;;;12.70;8.93;;;;;;;1.31;82.03;101413.47;1647550;83;21256;-91
2021/01/03 06:48:00;;;;;;;9.93;7.47;;;;;;;1.25;82.23;101409.94;1641778;86;21190;-94
2021/01/03 06:51:23;;;;;;;11.43;7.37;;;;;;;1.13;82.77;101408.11;1638812;87;21166;-92
2021/01/03 06:54:52;;;;;;;9.33;7.07;;;;;;;1.22;82.69;101404.05;1633883;84;21339;-91
2021/01/03 06:58:41;;;;;;;9.73;7.23;;;;;;;1.19;82.79;101391.97;1696496;80;21131;-91
2021/01/03 07:01:40;;;;;;;8.57;6.00;;;;;;;1.24;82.86;101417.44;1691305;85;21181;-95
2021/01/03 07:04:52;;;;;;;11.97;8.17;;;;;;;0.19;82.54;101224.83;1690155;82;21258;-94
2021/01/03 07:07:29;;;;;;;12.27;9.10;;;;;;;1.16;83.18;101409.23;1693324;79;21047;-93
2021/01/03 07:10:46;;;;;;;;;;;;;;;1.18;83.23;101413.91;1671702;84;21219;-95
2021/01/03 07:13:42;;;;;;;9.00;6.57;;;;;;;1.33;82.87;101422.56;1668744;83;20223;-91
2021/01/03 07:16:11;;;;;;;11.33;8.43;;;;;;;1.36;82.85;101423.20;1661306;85;21181;-91
2021/01/03 07:19:03;;;;;;;;;;;;;;;;;;;;;
2021/01/03 07:21:57;;;;;;;12.53;9.07;;;;;;;1.16;82.80;101369.36;1788771;78;23622;-91
2021/01/03 07:24:36;;;;;;;12.60;7.93;;;;;;;1.44;82.66;101413.50;1727733;81;21263;-91
2021/01/03 07:27:38;;;;;;;13.17;8.97;;;;;;;1.41;82.73;101412.86;1773655;79;21164;-91
2021/01/03 07:30:15;;;;;;;13.73;10.20;;;;;;;1.43;82.61;101431.98;1761756;79;21725;-92
2021/01/03 07:33:04;;;;;;;12.47;9.67;;;;;;;1.53;82.30;101417.31;1778516;80;21148;-93
2021/01/03 07:35:44;;;;;;;12.40;9.13;;;;;;;1.45;82.32;101419.14;1726452;81;21175;-88
2021/01/03 07:38:27;;;;;;;17.40;9.07;;;;;;;1.43;82.49;101413.15;1700378;82;21180;-92
2021/01/03 07:43:05;;;;;;;15.20;9.27;;;;;;;1.66;81.94;101407.64;1846721;76;22255;-92
2021/01/03 07:46:48;;;;;;;14.73;9.97;;;;;;;1.61;82.02;101413.68;1792714;77;21222;-89
2021/01/03 07:53:36;;;;;;;22.60;13.43;;;;;;;1.74;81.87;101411.90;1712729;77;20217;-93
2021/01/03 07:56:53;;;;;;;25.13;13.47;;;;;;;1.75;81.78;101414.05;1679589;83;21546;-94
2021/01/03 08:00:10;;;;;;;23.57;14.33;;;;;;;1.65;81.98;101415.15;1771068;77;21250;-93
2021/01/03 08:06:39;;;;;;;26.03;17.87;;;;;;;1.75;81.98;101413.59;1807286;75;22948;-93
2021/01/03 08:09:10;;;;;;;21.97;15.10;;;;;;;1.66;82.29;101411.59;1753756;80;21301;-93
2021/01/03 08:22:54;;;;;;;23.30;14.30;;;;;;;1.67;82.85;101408.00;1771115;77;25464;-92
2021/01/03 08:25:30;;;;;;;22.50;11.73;;;;;;;1.59;82.93;101410.31;1755545;79;21421;-94
2021/01/03 08:28:20;;;;;;;18.70;12.47;;;;;;;1.66;83.00;101418.64;1812158;77;23256;-92
2021/01/03 08:30:51;;;;;;;22.80;15.70;;;;;;;1.73;82.69;101414.17;1798497;79;21657;-92
2021/01/03 08:33:37;;;;;;;19.83;14.03;;;;;;;1.80;82.44;101411.12;1800055;79;21172;-91
2021/01/03 08:36:34;;;;;;;24.73;14.33;;;;;;;1.74;82.28;101410.58;1741760;80;21080;-92
2021/01/03 08:39:34;;;;;;;23.03;14.87;;;;;;;1.78;82.18;101413.84;1664623;85;21202;-94
2021/01/03 08:42:06;;;;;;;21.63;13.60;;;;;;;1.93;81.86;101417.22;1685317;84;21179;-95
2021/01/03 08:44:52;;;;;;;23.00;14.53;;;;;;;1.90;81.57;101417.41;1683076;84;21199;-96
2021/01/03 08:47:41;;;;;;;18.30;11.77;;;;;;;1.88;81.66;101420.14;1671032;84;21198;-93
2021/01/03 08:50:21;;;;;;;18.70;12.83;;;;;;;1.87;81.34;101428.16;1629425;87;21752;-94
2021/01/03 08:52:58;;;;;;;22.30;15.43;;;;;;;1.90;81.32;101429.25;1652739;85;21179;-94
2021/01/03 08:55:50;;;;;;;22.77;13.83;;;;;;;1.92;81.32;101420.77;1606305;85;21196;-93
2021/01/03 08:59:05;;;;;;;19.20;15.27;;;;;;;1.85;81.43;101432.69;1632904;87;21143;-93
2021/01/03 09:02:22;;;;;;;20.07;13.37;;;;;;;1.97;81.09;101434.94;1649970;85;21282;-93
2021/01/03 09:05:14;;;;;;;22.23;14.67;;;;;;;1.91;80.98;101427.00;1627094;87;21663;-89
2021/01/03 09:08:06;;;;;;;23.50;16.07;;;;;;;1.86;81.24;101426.47;1644545;83;21235;-90
2021/01/03 09:10:38;;;;;;;22.27;15.23;;;;;;;2.04;80.90;101443.61;1690999;82;21208;-87
2021/01/03 09:13:26;;;;;;;20.43;15.57;;;;;;;2.14;80.39;101426.23;1703293;83;21302;-88
2021/01/03 09:16:41;;;;;;;22.58;14.87;;;;;;;2.03;79.87;101429.25;1677272;82;21223;-90
2021/01/03 09:22:35;;;;;;;24.97;15.93;;;;;;;2.21;79.28;101424.03;1810808;77;24328;-91
2021/01/03 09:25:35;;;;;;;25.60;18.10;;;;;;;2.15;79.20;101420.52;1797372;78;21245;-87
2021/01/03 09:28:23;;;;;;;22.37;16.20;;;;;;;2.11;79.60;101430.41;1683445;83;21196;-89
2021/01/03 09:30:51;;;;;;;17.67;12.83;;;;;;;2.13;79.29;101410.58;1700433;82;21334;-89
2021/01/03 09:33:24;;;;;;;19.47;15.50;;;;;;;2.27;78.70;101422.27;1666148;83;21193;-88
2021/01/03 09:36:34;;;;;;;23.17;17.87;;;;;;;2.12;78.97;101420.72;1690424;80;21064;-90
2021/01/03 09:39:42;;;;;;;24.67;16.20;;;;;;;2.16;79.22;101421.35;1635630;81;21160;-90
2021/01/03 09:42:25;;;;;;;19.60;14.83;;;;;;;2.21;78.82;101415.30;1624234;87;21320;-88
2021/01/03 09:45:15;;;;;;;26.53;17.50;;;;;;;2.08;79.08;101406.94;1628209;86;21371;-88
2021/01/03 09:47:45;;;;;;;17.80;13.77;;;;;;;2.13;79.17;101400.89;1638023;87;21329;-88
2021/01/03 09:50:17;;;;;;;19.83;14.77;;;;;;;2.28;78.83;101400.74;1634655;86;21203;-89
2021/01/03 09:53:12;;;;;;;20.13;14.70;;;;;;;2.36;78.65;101408.95;1630743;86;21302;-91
2021/01/03 09:55:47;;;;;;;23.87;17.53;;;;;;;2.31;78.52;101415.84;1629022;86;21245;-88
2021/01/03 09:58:26;;;;;;;;;;;;;;;;;;;;;
2021/01/03 10:00:58;;;;;;;22.03;16.83;;;;;;;2.16;79.07;101406.89;1808053;77;23496;-88
2021/01/03 10:03:44;;;;;;;22.63;16.17;;;;;;;2.12;79.13;101401.00;1736782;81;21342;-89
2021/01/03 10:06:18;;;;;;;27.23;19.63;;;;;;;2.04;79.30;101407.28;1709132;81;21064;-88
2021/01/03 10:08:49;;;;;;;22.27;17.23;;;;;;;2.11;79.33;101397.53;1678139;84;21148;-90
2021/01/03 10:11:31;;;;;;;23.60;17.57;;;;;;;2.25;79.00;101386.03;1678670;84;21188;-89
2021/01/03 10:14:01;;;;;;;23.90;19.03;;;;;;;2.19;78.83;101404.05;1679113;84;21811;-87
2021/01/03 10:16:29;;;;;;;25.83;20.03;;;;;;;2.14;79.24;101394.67;1670894;84;21179;-88
2021/01/03 10:18:56;;;;;;;22.20;17.80;;;;;;;2.32;79.10;101393.03;1679031;84;21374;-88
2021/01/03 10:21:35;;;;;;;;;;;;;;;2.41;78.56;101381.85;1682738;84;21800;-88
2021/01/03 10:24:23;;;;;;;25.03;17.20;;;;;;;2.43;78.57;101373.37;1678489;83;20154;-87
2021/01/03 10:27:13;;;;;;;29.53;19.67;;;;;;;2.35;78.60;101382.27;1673011;84;21163;-89
2021/01/03 10:29:41;;;;;;;25.87;20.40;;;;;;;2.46;78.21;101377.08;1680746;84;21528;-88
2021/01/03 10:32:08;;;;;;;27.33;19.47;;;;;;;2.58;78.14;101379.77;1680974;84;21203;-88
2021/01/03 10:34:35;;;;;;;27.20;18.20;;;;;;;2.52;77.97;101380.61;1688575;84;21227;-89
2021/01/03 10:37:03;;;;;;;20.60;16.63;;;;;;;2.48;77.94;101378.28;1671593;84;21219;-89
2021/01/03 10:39:30;;;;;;;24.07;17.63;;;;;;;2.55;77.56;101374.27;1683695;84;21188;-89
2021/01/03 10:41:58;;;;;;;23.20;16.80;;;;;;;2.60;77.65;101369.52;1685126;84;21355;-89
2021/01/03 10:44:26;;;;;;;20.53;15.60;;;;;;;2.59;77.75;101384.94;1681722;84;21678;-90
2021/01/03 10:46:56;;;;;;;20.67;17.27;;;;;;;2.48;77.84;101367.27;1678293;84;21220;-87
2021/01/03 10:49:23;;;;;;;20.47;16.70;;;;;;;2.59;77.91;101356.47;1685419;84;21424;-90
2021/01/03 10:51:50;;;;;;;21.07;16.93;;;;;;;2.71;77.46;101363.45;1691898;84;21230;-89
2021/01/03 10:54:22;;;;;;;22.80;18.40;;;;;;;2.70;77.41;101355.20;1688252;84;21450;-88
2021/01/03 10:56:52;;;;;;;19.70;14.80;;;;;;;2.62;77.75;101366.75;1660476;84;21165;-87
2021/01/03 10:59:21;;;;;;;17.43;13.17;;;;;;;2.64;77.68;101368.34;1679863;84;21217;-87
2021/01/03 11:01:48;;;;;;;22.83;15.93;;;;;;;2.48;77.20;101301.48;1681063;84;21190;-88
2021/01/03 11:04:20;;;;;;;17.60;14.80;;;;;;;2.71;76.60;101350.29;1686830;84;21164;-89
2021/01/03 11:06:50;;;;;;;21.97;15.07;;;;;;;2.66;76.69;101352.44;1673965;84;21289;-86
2021/01/03 11:09:25;;;;;;;16.43;12.20;;;;;;;2.73;76.49;101351.87;1715248;82;21186;-90
2021/01/03 11:12:09;;;;;;;23.40;16.20;;;;;;;2.79;75.79;101345.31;1710903;82;21158;-87
2021/01/03 11:14:38;;;;;;;21.33;15.03;;;;;;;2.72;76.08;101351.50;1703679;82;21328;-87
2021/01/03 11:17:07;;;;;;;22.80;16.20;;;;;;;2.69;76.50;101348.25;1707943;82;21339;-88
2021/01/03 11:19:34;;;;;;;19.57;14.50;;;;;;;2.82;76.63;101358.72;1698090;82;21193;-87
2021/01/03 11:22:04;;;;;;;21.17;16.90;;;;;;;2.85;76.56;101350.61;1710822;82;21221;-88
2021/01/03 11:24:31;;;;;;;18.03;13.33;;;;;;;2.75;76.93;101356.17;1687076;83;21384;-90
2021/01/03 11:27:00;;;;;;;17.13;13.40;;;;;;;2.64;77.18;101352.55;1687666;84;21183;-92
2021/01/03 11:29:32;;;;;;;19.40;16.13;;;;;;;2.77;77.02;101349.86;1683680;80;21174;-87
2021/01/03 11:32:05;;;;;;;19.27;15.80;;;;;;;2.78;76.95;101361.22;1716470;77;21146;-89
2021/01/03 11:34:46;;;;;;;22.07;14.83;;;;;;;2.75;77.17;101347.82;1698427;79;21142;-93
2021/01/03 11:37:19;;;;;;;20.47;14.10;;;;;;;2.75;77.08;101345.19;1709184;77;21086;-90
2021/01/03 11:39:49;;;;;;;18.07;14.37;;;;;;;2.84;76.55;101334.44;1704792;78;21134;-90
2021/01/03 11:42:30;;;;;;;20.23;16.33;;;;;;;2.97;75.81;101348.85;1707961;83;21213;-90
2021/01/03 11:44:57;;;;;;;14.90;11.93;;;;;;;2.93;75.58;101350.88;1701713;82;21328;-90
2021/01/03 11:47:31;;;;;;;14.37;12.60;;;;;;;2.82;75.16;101360.04;1693084;84;21186;-89
2021/01/03 11:50:00;;;;;;;10.60;9.50;;;;;;;2.83;75.35;101346.77;1709398;82;21165;-90
2021/01/03 11:52:29;;;;;;;16.20;12.47;;;;;;;2.89;74.73;101350.25;1709817;82;22667;-91
2021/01/03 11:57:58;;;;;;;13.33;10.37;;;;;;;2.84;75.08;101344.48;1789144;78;23135;-90
2021/01/03 12:00:37;;;;;;;11.57;9.87;;;;;;;2.89;74.96;101348.11;1754452;80;21194;-89
2021/01/03 12:03:18;;;;;;;13.90;11.30;;;;;;;2.98;74.52;101367.67;1723857;80;21234;-92
2021/01/03 12:06:05;;;;;;;19.10;12.93;;;;;;;2.88;74.91;101355.17;1721994;80;21097;-91
2021/01/03 12:09:14;;;;;;;15.80;12.50;;;;;;;2.82;75.19;101338.48;1676547;82;21291;-90
2021/01/03 12:12:04;;;;;;;14.70;12.73;;;;;;;2.96;75.04;101349.34;1656342;83;21317;-90
2021/01/03 12:15:00;;;;;;;12.53;10.60;;;;;;;2.98;75.04;101347.91;1806528;77;25411;-91
2021/01/03 12:17:50;;;;;;;12.43;11.13;;;;;;;2.90;75.17;101346.69;1736536;81;21183;-87
2021/01/03 12:20:24;;;;;;;14.13;12.00;;;;;;;2.90;75.37;101337.92;1696946;81;21199;-89
2021/01/03 12:27:03;;;;;;;;;;;;;;;;;;;;;
2021/01/03 12:40:32;;;;;;;8.20;6.70;;;;;;;2.96;75.91;101310.29;1754882;79;27954;-90
2021/01/03 12:43:49;;;;;;;11.17;8.00;;;;;;;3.01;76.01;101314.25;1800671;79;25374;-92
2021/01/03 12:47:06;;;;;;;8.47;7.33;;;;;;;3.00;75.93;101316.55;1764193;80;21172;-91
2021/01/03 12:49:41;;;;;;;9.35;7.22;;;;;;;2.89;76.21;101319.97;1766799;80;21123;-91
2021/01/03 12:52:12;;;;;;;8.40;6.60;;;;;;;2.91;76.51;101319.86;1750360;81;21311;-90
2021/01/03 12:55:24;;;;;;;;;;;;;;;;;;;;;
2021/01/03 13:01:50;;;;;;;;;;;;;;;;;;;;;
2021/01/03 13:04:53;;;;;;;9.20;8.17;;;;;;;2.93;76.54;101320.09;1753364;79;24852;-90
2021/01/03 13:07:34;;;;;;;8.88;7.70;;;;;;;2.81;76.77;101316.25;1739793;80;21376;-92
2021/01/03 13:10:16;;;;;;;9.73;8.83;;;;;;;2.93;76.71;101317.47;1794230;77;28209;-90
2021/01/03 13:19:14;;;;;;;7.00;6.07;;;;;;;3.29;75.44;101293.24;1822544;75;22974;-90
2021/01/03 13:36:05;;;;;;;27.00;12.20;;;;;;;2.90;76.92;101308.95;1785914;78;27870;-88
2021/01/03 13:39:00;;;;;;;11.17;9.27;;;;;;;2.85;77.05;101311.11;1760278;80;21171;-89
2021/01/03 13:41:37;;;;;;;9.43;8.03;;;;;;;3.05;76.47;101304.33;1771801;79;23398;-90
2021/01/03 13:44:09;;;;;;;15.80;11.07;;;;;;;2.97;76.18;101330.42;1775179;80;21179;-90
2021/01/03 13:46:39;;;;;;;13.10;10.73;;;;;;;2.85;76.62;101326.42;1770412;80;21136;-89
2021/01/03 13:49:10;;;;;;;14.00;12.23;;;;;;;2.73;77.15;101310.20;1783065;80;21176;-90
2021/01/03 13:58:36;;;;;;;11.03;8.00;;;;;;;2.68;77.14;101313.19;1826713;76;22969;-91
2021/01/03 14:01:10;;;;;;;10.70;9.60;;;;;;;2.61;77.01;101307.17;1823668;76;21174;-88
2021/01/03 14:10:23;;;;;;;16.97;10.60;;;;;;;2.47;77.57;101309.03;1700369;80;21706;-87
2021/01/03 14:12:51;;;;;;;15.93;10.80;;;;;;;2.36;77.70;101308.14;1729401;81;21218;-88
2021/01/03 14:16:05;;;;;;;;;;;;;;;;;;;;;
2021/01/03 14:19:39;;;;;;;;;;;;;;;;;;;;;
2021/01/03 14:22:54;;;;;;;;;;;;;;;;;;;;;
2021/01/03 14:29:38;;;;;;;23.17;13.90;;;;;;;2.28;78.02;101287.16;1669509;80;21731;31
2021/01/03 14:32:56;;;;;;;24.90;14.77;;;;;;;2.29;77.95;101288.00;1571505;89;21571;-94
2021/01/03 14:39:36;;;;;;;19.80;13.43;;;;;;;2.30;77.88;101289.69;1610368;86;21265;-95
2021/01/03 15:10:27;;;;;;;9.13;7.83;;;;;;;2.09;76.71;101281.08;1629483;83;21296;-96
2021/01/03 15:14:00;;;;;;;11.10;8.43;;;;;;;2.12;76.34;101291.36;1627623;86;21237;-95
2021/01/03 15:21:42;;;;;;;10.40;9.00;;;;;;;2.08;76.26;101274.61;1620010;86;21180;-95
2021/01/03 15:25:10;;;;;;;11.37;9.17;;;;;;;2.13;76.06;101269.86;1628507;87;21207;-96
2021/01/03 15:28:46;;;;;;;;;;;;;;;;;;;;;
2021/01/03 15:32:26;;;;;;;10.37;8.73;;;;;;;2.00;76.35;101267.27;1601811;87;21575;-95
2021/01/03 15:36:06;;;;;;;;;;;;;;;;;;;;;
2021/01/03 15:55:27;;;;;;;10.13;8.17;;;;;;;1.75;77.89;101249.30;1762247;75;21160;-94
2021/01/03 16:09:02;;;;;;;10.90;8.27;;;;;;;1.92;78.04;101257.76;1654664;82;21251;-96
2021/01/03 16:15:45;;;;;;;9.50;8.00;;;;;;;1.83;78.62;101250.52;1776762;77;21167;-96
2021/01/03 16:19:39;;;;;;;;;;;;;;;;;;;;;
2021/01/03 16:42:18;;;;;;;18.87;12.33;;;;;;;2.05;78.85;101245.41;1723888;81;21214;-96